Arlington, Wisconsin
Current Conditions -  °F | °C
As of 7:53 AM on Sunday 25 Jan 2015 (Local Time) from KMSN Reporting Station
Light Snow Light Snow  
Wind Chill: 11°   Ceiling: 1800
Heat Index: 23°   Visibility: 9mi
Dew Point: 19°   Wind: 14mph
Humidity: 85%   Direction: 40°NE
Pressure: 29.84"   Gusts: NA
Location:  43.34°N, 89.38°W
Report Text: KMSN 251353Z 04012KT 9SM -SN BKN018 OVC055 M05/M07 A2984 RMK AO2 SLP114 P0000 T10501072
Loading
Personal Weather Stations






























Interactive Weather Map New forecast layout! Learn more

10-Day Weather Forecast

Advertisements
Track Severe Weather on mobile